Weather at Kelowna International Airport

Public forecast

Using degrees Celsius for public forecast. Weather courtesy of forecast.io.

Current aviation weather report (METAR) for Kelowna International Airport

Retrieved 2020/09/22 13:00 UTC (43 minutes ago):

CYLW 221300Z AUTO 35003KT 330V050 9SM CLR 08/06 A2998 RMK SLP157

Aviation forecast (TAF) for Kelowna International Airport

Retrieved 2020/09/22 13:39 UTC (4 minutes ago):

TAF CYLW 221238Z 2213/2301 VRB03KT P6SM SCT150 BKN220 FM222100 33010KT P6SM SCT060 SCT240 RMK FCST BASED ON AUTO OBS NXT FCST BY 221900Z